Putnam, Oklahoma
Current Conditions -  °F | °C
As of 12:35 PM on Sunday 21 Dec 2014 (Local Time) from KCLK Reporting Station
Haze Haze  
Wind Chill:   Ceiling: 700
Heat Index:   Visibility: 5mi
Dew Point:   Wind: 14mph
Humidity: 87%   Direction: 180°S
Pressure: 29.84"   Gusts: NA
Location:  35.86°N, 98.97°W
Report Text: KCLK 211835Z AUTO 18012KT 5SM BR OVC007 07/05 A2984 RMK AO2
Loading
Personal Weather Stations






























Interactive Weather Map New forecast layout! Learn more

10-Day Weather Forecast

Advertisements
Track Severe Weather on mobile